createdAt,value
2018-09-20T00:01:46.468Z,55.66
2018-09-20T00:04:17.270Z,55.80
2018-09-20T00:06:47.960Z,55.92
2018-09-20T00:09:18.641Z,56.29
2018-09-20T00:11:49.333Z,55.68
2018-09-20T00:14:20.130Z,56.04
2018-09-20T00:16:50.782Z,56.00
2018-09-20T00:19:21.449Z,56.04
2018-09-20T00:21:52.094Z,56.40
2018-09-20T00:24:22.773Z,56.43
2018-09-20T00:26:53.428Z,56.58
2018-09-20T00:29:24.036Z,56.46
2018-09-20T00:31:54.689Z,56.50
2018-09-20T00:34:25.337Z,56.60
2018-09-20T00:36:56.060Z,56.71
2018-09-20T00:39:26.705Z,56.58
2018-09-20T00:41:57.367Z,56.58
2018-09-20T00:44:28.036Z,56.31
2018-09-20T00:46:58.710Z,56.24
2018-09-20T00:49:29.408Z,56.46
2018-09-20T00:52:00.061Z,56.67
2018-09-20T00:54:30.736Z,56.56
2018-09-20T00:57:01.509Z,56.87
2018-09-20T00:59:32.269Z,56.44
2018-09-20T01:02:03.177Z,56.48
2018-09-20T01:04:34.064Z,55.91
2018-09-20T01:07:04.781Z,56.30
2018-09-20T01:09:35.479Z,56.76
2018-09-20T01:12:06.220Z,57.18
2018-09-20T01:14:36.939Z,57.25
2018-09-20T01:17:07.690Z,56.80
2018-09-20T01:19:38.436Z,56.65
2018-09-20T01:22:09.105Z,56.95
2018-09-20T01:24:39.847Z,56.85
2018-09-20T01:27:10.595Z,57.14
2018-09-20T01:29:41.326Z,56.91
2018-09-20T01:32:12.320Z,56.68
2018-09-20T01:34:43.005Z,56.91
2018-09-20T01:37:13.731Z,57.68
2018-09-20T01:39:44.476Z,57.36
2018-09-20T01:42:15.147Z,57.65
2018-09-20T01:44:45.816Z,57.78
2018-09-20T01:47:16.695Z,58.02
2018-09-20T01:49:47.342Z,57.79
2018-09-20T01:52:18.065Z,58.25
2018-09-20T01:54:48.776Z,58.47
2018-09-20T01:57:19.752Z,58.08
2018-09-20T01:59:50.444Z,58.37
2018-09-20T02:02:21.166Z,57.98
2018-09-20T02:04:51.874Z,58.66
2018-09-20T02:07:22.588Z,58.09
2018-09-20T02:09:53.233Z,58.72
2018-09-20T02:12:23.928Z,58.37
2018-09-20T02:14:54.618Z,58.69
2018-09-20T02:17:25.303Z,58.99
2018-09-20T02:19:56.030Z,58.91
2018-09-20T02:22:26.696Z,58.84
2018-09-20T02:24:57.411Z,58.81
2018-09-20T02:27:28.081Z,58.79
2018-09-20T02:29:58.803Z,58.98
2018-09-20T02:32:29.495Z,59.35
2018-09-20T02:35:00.224Z,59.08
2018-09-20T02:37:30.982Z,59.55
2018-09-20T02:40:01.630Z,59.45
2018-09-20T02:42:39.107Z,59.77
2018-09-20T02:45:09.838Z,59.30
2018-09-20T02:47:40.550Z,59.59
2018-09-20T02:50:11.228Z,59.62
2018-09-20T02:52:41.988Z,59.77
2018-09-20T02:55:12.659Z,59.76
2018-09-20T02:57:43.380Z,59.88
2018-09-20T03:00:14.090Z,59.50
2018-09-20T03:02:44.782Z,59.82
2018-09-20T03:05:15.550Z,60.04
2018-09-20T03:07:46.236Z,60.07
2018-09-20T03:10:17.013Z,60.21
2018-09-20T03:12:47.606Z,60.09
2018-09-20T03:15:18.308Z,60.03
2018-09-20T03:17:48.975Z,60.32
2018-09-20T03:20:19.743Z,60.06
2018-09-20T03:22:50.420Z,60.32
2018-09-20T03:25:21.216Z,60.08
2018-09-20T03:27:51.809Z,60.50
2018-09-20T03:30:23.109Z,60.01
2018-09-20T03:32:53.766Z,60.56
2018-09-20T03:35:24.486Z,60.53
2018-09-20T03:37:55.183Z,60.50
2018-09-20T03:40:25.839Z,60.49
2018-09-20T03:42:56.625Z,60.39
2018-09-20T03:45:27.366Z,60.33
2018-09-20T03:47:58.057Z,60.37
2018-09-20T03:50:28.740Z,60.48
2018-09-20T03:52:59.478Z,60.36
2018-09-20T03:55:30.204Z,60.64
2018-09-20T03:58:00.921Z,60.87
2018-09-20T04:00:31.589Z,60.69
2018-09-20T04:03:02.299Z,60.91
2018-09-20T04:05:33.110Z,61.07
2018-09-20T04:08:03.783Z,61.05
2018-09-20T04:10:34.467Z,61.22
2018-09-20T04:13:05.162Z,60.62
2018-09-20T04:15:36.051Z,60.66
2018-09-20T04:18:06.889Z,61.02
2018-09-20T04:20:37.720Z,60.78
2018-09-20T04:23:08.532Z,60.73
2018-09-20T04:25:39.248Z,61.01
2018-09-20T04:28:09.938Z,61.15
2018-09-20T04:30:40.585Z,60.91
2018-09-20T04:33:11.346Z,61.01
2018-09-20T04:35:42.040Z,61.14
2018-09-20T04:38:12.738Z,61.26
2018-09-20T04:40:43.476Z,61.60
2018-09-20T04:43:14.230Z,61.21
2018-09-20T04:45:44.864Z,61.04
2018-09-20T04:48:15.479Z,61.40
2018-09-20T04:50:46.136Z,61.73
2018-09-20T04:53:16.927Z,61.71
2018-09-20T04:55:47.548Z,61.25
2018-09-20T04:58:18.371Z,61.47
2018-09-20T05:00:49.013Z,61.44
2018-09-20T05:03:19.836Z,61.04
2018-09-20T05:05:50.644Z,61.42
2018-09-20T05:08:21.400Z,61.63
2018-09-20T05:10:52.022Z,61.25
2018-09-20T05:13:22.730Z,61.75
2018-09-20T05:15:54.605Z,61.43
2018-09-20T05:18:25.299Z,61.52
2018-09-20T05:20:56.020Z,61.50
2018-09-20T05:23:26.902Z,62.36
2018-09-20T05:25:57.571Z,62.29
2018-09-20T05:28:28.301Z,61.90
2018-09-20T05:30:58.932Z,61.97
2018-09-20T05:33:29.724Z,61.54
2018-09-20T05:36:00.819Z,62.15
2018-09-20T05:38:31.546Z,62.59
2018-09-20T05:41:02.323Z,62.15
2018-09-20T05:43:33.024Z,62.63
2018-09-20T05:46:03.994Z,62.01
2018-09-20T05:48:34.620Z,61.84
2018-09-20T05:51:05.409Z,61.40
2018-09-20T05:53:36.139Z,61.96
2018-09-20T05:56:06.961Z,61.28
2018-09-20T05:58:37.677Z,61.82
2018-09-20T06:01:08.329Z,61.36
2018-09-20T06:03:38.977Z,61.48
2018-09-20T06:06:09.609Z,61.49
2018-09-20T06:08:40.328Z,61.12
2018-09-20T06:11:11.073Z,61.51
2018-09-20T06:13:41.787Z,61.10
2018-09-20T06:16:12.614Z,61.10
2018-09-20T06:18:43.305Z,60.63
2018-09-20T06:21:13.988Z,59.84
2018-09-20T06:23:44.713Z,60.13
2018-09-20T06:26:15.578Z,59.66
2018-09-20T06:28:46.327Z,60.37
2018-09-20T06:31:16.984Z,60.14
2018-09-20T06:33:47.660Z,60.18
2018-09-20T06:36:18.324Z,60.13
2018-09-20T06:38:49.045Z,59.79
2018-09-20T06:41:19.705Z,58.84
2018-09-20T06:43:50.421Z,58.69
2018-09-20T06:46:21.100Z,58.21
2018-09-20T06:48:51.756Z,57.37
2018-09-20T06:51:22.399Z,57.25
2018-09-20T06:53:53.291Z,56.44
2018-09-20T06:56:24.051Z,55.90
2018-09-20T06:58:54.776Z,55.67
2018-09-20T07:01:26.411Z,55.24
2018-09-20T07:03:57.140Z,54.86
2018-09-20T07:06:27.784Z,54.57
2018-09-20T07:08:58.451Z,54.08
2018-09-20T07:11:29.113Z,53.30
2018-09-20T07:13:59.775Z,53.35
2018-09-20T07:16:30.509Z,52.97
2018-09-20T07:19:01.644Z,52.28
2018-09-20T07:21:33.860Z,51.83
2018-09-20T07:24:04.498Z,51.52
2018-09-20T07:26:35.205Z,50.67
2018-09-20T07:29:06.088Z,50.28
2018-09-20T07:31:36.778Z,50.44
2018-09-20T07:34:07.503Z,49.84
2018-09-20T07:36:38.203Z,48.87
2018-09-20T07:39:10.307Z,48.37
2018-09-20T07:41:41.059Z,48.44
2018-09-20T07:44:11.715Z,48.60
2018-09-20T07:46:42.478Z,47.84
2018-09-20T07:49:16.070Z,48.33
2018-09-20T07:51:47.253Z,47.64
2018-09-20T07:54:17.979Z,46.76
2018-09-20T07:56:48.705Z,46.19
2018-09-20T07:59:19.530Z,46.08
2018-09-20T08:01:50.263Z,45.29
2018-09-20T08:04:20.909Z,46.30
2018-09-20T08:06:51.597Z,46.74
2018-09-20T08:09:22.231Z,46.44
2018-09-20T08:11:52.972Z,45.32
2018-09-20T08:14:23.624Z,44.67
2018-09-20T08:16:54.311Z,44.07
2018-09-20T08:19:24.995Z,43.13
2018-09-20T08:21:56.127Z,42.88
2018-09-20T08:24:26.870Z,43.65
2018-09-20T08:26:57.498Z,43.06
2018-09-20T08:29:28.145Z,44.03
2018-09-20T08:31:58.847Z,44.04
2018-09-20T08:34:29.550Z,44.67
2018-09-20T08:37:00.282Z,45.01
2018-09-20T08:39:30.928Z,44.25
2018-09-20T08:42:01.599Z,43.83
2018-09-20T08:44:32.180Z,43.42
2018-09-20T08:47:02.911Z,43.00
2018-09-20T08:49:33.674Z,43.10
2018-09-20T08:52:04.467Z,42.61
2018-09-20T08:54:35.275Z,42.92
2018-09-20T08:57:06.049Z,42.48
2018-09-20T08:59:36.798Z,40.80
2018-09-20T09:02:07.516Z,40.57
2018-09-20T09:04:38.286Z,40.91
2018-09-20T09:07:08.867Z,40.92
2018-09-20T09:09:39.591Z,41.06
2018-09-20T09:12:10.288Z,40.76
2018-09-20T09:14:40.945Z,41.57
2018-09-20T09:17:11.596Z,41.47
2018-09-20T09:19:42.262Z,41.65
2018-09-20T09:22:12.928Z,41.71
2018-09-20T09:24:43.561Z,40.22
2018-09-20T09:27:14.312Z,39.75
2018-09-20T09:29:44.998Z,39.86
2018-09-20T09:32:15.609Z,39.38
2018-09-20T09:34:46.271Z,39.93
2018-09-20T09:37:17.401Z,40.29
2018-09-20T09:39:48.064Z,39.75
2018-09-20T09:42:18.746Z,40.50
2018-09-20T09:44:49.377Z,38.96
2018-09-20T09:47:20.032Z,39.67
2018-09-20T09:49:50.739Z,40.23
2018-09-20T09:52:21.423Z,40.25
2018-09-20T09:54:52.160Z,39.33
2018-09-20T09:57:22.866Z,39.11
2018-09-20T09:59:53.599Z,39.46
2018-09-20T10:02:24.535Z,38.96
2018-09-20T10:04:56.172Z,39.69
2018-09-20T10:07:26.872Z,40.15
2018-09-20T10:09:57.504Z,40.05
2018-09-20T10:12:28.179Z,39.84
2018-09-20T10:14:59.488Z,39.58
2018-09-20T10:17:30.190Z,40.21
2018-09-20T10:20:00.866Z,39.99
2018-09-20T10:22:31.463Z,40.02
2018-09-20T10:25:02.224Z,40.43
2018-09-20T10:27:32.895Z,40.60
2018-09-20T10:30:04.360Z,40.20
2018-09-20T10:32:35.140Z,39.96
2018-09-20T10:35:06.322Z,39.93
2018-09-20T10:37:37.068Z,39.28
2018-09-20T10:40:07.888Z,39.02
2018-09-20T10:42:38.583Z,40.34
2018-09-20T10:45:09.260Z,40.84
2018-09-20T10:47:39.887Z,40.42
2018-09-20T10:50:10.801Z,39.27
2018-09-20T10:52:41.512Z,39.75
2018-09-20T10:55:12.301Z,39.45
2018-09-20T10:57:42.922Z,38.81
2018-09-20T11:00:13.594Z,38.78
2018-09-20T11:02:44.232Z,38.50
2018-09-20T11:05:14.986Z,39.53
2018-09-20T11:07:45.635Z,40.57
2018-09-20T11:10:16.347Z,40.44
2018-09-20T11:12:47.013Z,40.75
2018-09-20T11:15:17.676Z,39.45
2018-09-20T11:17:48.645Z,38.92
2018-09-20T11:20:19.301Z,37.25
2018-09-20T11:22:49.987Z,36.79
2018-09-20T11:25:20.573Z,37.27
2018-09-20T11:27:51.209Z,36.11
2018-09-20T11:30:21.960Z,35.01
2018-09-20T11:32:52.637Z,35.34
2018-09-20T11:35:23.331Z,36.73
2018-09-20T11:37:54.007Z,36.41
2018-09-20T11:40:24.733Z,35.63
2018-09-20T11:42:55.444Z,35.77
2018-09-20T11:45:26.179Z,36.34
2018-09-20T11:47:56.875Z,36.06
2018-09-20T11:50:27.601Z,36.41
2018-09-20T11:52:58.271Z,35.25
2018-09-20T11:55:28.917Z,35.78
2018-09-20T11:57:59.628Z,34.89
2018-09-20T12:00:30.379Z,34.91
2018-09-20T12:03:01.024Z,35.18
2018-09-20T12:05:31.768Z,34.08
2018-09-20T12:08:02.506Z,34.01
2018-09-20T12:10:33.398Z,33.88
2018-09-20T12:13:04.184Z,32.97
2018-09-20T12:15:34.878Z,32.82
2018-09-20T12:18:05.657Z,33.66
2018-09-20T12:20:36.340Z,33.63
2018-09-20T12:23:07.101Z,34.49
2018-09-20T12:25:37.790Z,33.07
2018-09-20T12:28:08.564Z,32.66
2018-09-20T12:30:39.203Z,32.47
2018-09-20T12:33:09.920Z,32.06
2018-09-20T12:35:40.733Z,32.09
2018-09-20T12:38:11.385Z,31.35
2018-09-20T12:40:42.013Z,32.52
2018-09-20T12:43:12.709Z,31.74
2018-09-20T12:45:43.327Z,33.26
2018-09-20T12:48:14.005Z,33.36
2018-09-20T12:50:44.762Z,33.81
2018-09-20T12:53:15.451Z,33.75
2018-09-20T12:55:46.163Z,32.42
2018-09-20T12:58:57.583Z,32.38
2018-09-20T13:01:28.513Z,31.20
2018-09-20T13:03:59.154Z,31.67
2018-09-20T13:06:29.820Z,31.45
2018-09-20T13:09:00.622Z,30.83
2018-09-20T13:11:31.379Z,31.27
2018-09-20T13:14:02.094Z,31.35
2018-09-20T13:16:32.783Z,30.83
2018-09-20T13:19:03.695Z,30.34
2018-09-20T13:21:34.501Z,30.14
2018-09-20T13:24:05.221Z,30.58
2018-09-20T13:26:35.837Z,31.63
2018-09-20T13:29:06.595Z,31.39
2018-09-20T13:31:37.298Z,31.31
2018-09-20T13:34:08.003Z,31.39
2018-09-20T13:36:38.756Z,31.17
2018-09-20T13:39:12.056Z,31.52
2018-09-20T13:41:42.809Z,31.43
2018-09-20T13:44:13.461Z,30.27
2018-09-20T13:46:44.171Z,31.35
2018-09-20T13:49:14.803Z,31.20
2018-09-20T13:51:45.495Z,31.24
2018-09-20T13:54:16.100Z,31.10
2018-09-20T13:56:46.784Z,30.83
2018-09-20T13:59:17.564Z,29.92
2018-09-20T14:01:48.317Z,30.43
2018-09-20T14:04:18.992Z,30.43
2018-09-20T14:06:49.702Z,30.68
2018-09-20T14:09:20.439Z,31.08
2018-09-20T14:11:51.106Z,31.23
2018-09-20T14:14:21.774Z,31.57
2018-09-20T14:16:52.439Z,31.34
2018-09-20T14:19:23.245Z,31.62
2018-09-20T14:21:53.928Z,32.15
2018-09-20T14:24:24.573Z,31.90
2018-09-20T14:26:55.279Z,32.13
2018-09-20T14:29:25.920Z,31.07
2018-09-20T14:31:56.633Z,31.25
2018-09-20T14:34:27.303Z,30.46
2018-09-20T14:36:57.969Z,30.34
2018-09-20T14:39:28.839Z,30.76
2018-09-20T14:41:59.520Z,30.88
2018-09-20T14:44:30.233Z,30.75
2018-09-20T14:47:00.932Z,31.85
2018-09-20T14:49:31.589Z,30.92
2018-09-20T14:52:02.272Z,31.55
2018-09-20T14:54:32.946Z,31.25
2018-09-20T14:57:03.649Z,31.59
2018-09-20T14:59:34.358Z,31.39
2018-09-20T15:02:05.115Z,31.72
2018-09-20T15:04:35.771Z,31.20
2018-09-20T15:07:06.523Z,30.96
2018-09-20T15:09:37.127Z,30.80
2018-09-20T15:12:07.901Z,31.07
2018-09-20T15:14:38.657Z,30.90
2018-09-20T15:17:10.170Z,31.40
2018-09-20T15:19:40.805Z,31.40
2018-09-20T15:22:11.468Z,31.16
2018-09-20T15:24:42.324Z,31.87
2018-09-20T15:27:12.835Z,31.51
2018-09-20T15:29:43.483Z,31.88
2018-09-20T15:32:14.128Z,32.11
2018-09-20T15:34:44.771Z,31.58
2018-09-20T15:37:15.416Z,32.34
2018-09-20T15:39:46.071Z,32.31
2018-09-20T15:42:16.767Z,31.60
2018-09-20T15:44:47.565Z,32.23
2018-09-20T15:47:18.398Z,32.30
2018-09-20T15:49:49.231Z,32.35
2018-09-20T15:52:20.112Z,32.89
2018-09-20T15:54:50.815Z,32.98
2018-09-20T15:57:21.435Z,33.03
2018-09-20T15:59:52.097Z,32.24
2018-09-20T16:02:22.753Z,32.42
2018-09-20T16:04:53.388Z,32.80
2018-09-20T16:07:24.047Z,32.51
2018-09-20T16:09:54.772Z,32.54
2018-09-20T16:12:25.621Z,32.82
2018-09-20T16:14:56.332Z,33.07
2018-09-20T16:17:27.000Z,33.55
2018-09-20T16:19:57.984Z,33.14
2018-09-20T16:22:28.689Z,33.38
2018-09-20T16:24:59.351Z,33.37
2018-09-20T16:27:30.101Z,33.59
2018-09-20T16:30:28.296Z,33.25
2018-09-20T16:33:38.681Z,33.96
2018-09-20T16:36:40.208Z,34.67
2018-09-20T16:39:19.321Z,34.29
2018-09-20T16:41:54.461Z,33.99
2018-09-20T16:44:25.093Z,34.50
2018-09-20T16:46:55.783Z,34.60
2018-09-20T16:49:26.376Z,34.97
2018-09-20T16:51:57.064Z,35.54
2018-09-20T16:54:27.744Z,35.35
2018-09-20T16:56:58.446Z,35.28
2018-09-20T16:59:29.148Z,35.45
2018-09-20T17:01:59.847Z,36.01
2018-09-20T17:04:30.503Z,36.24
2018-09-20T17:07:01.188Z,37.06
2018-09-20T17:09:31.888Z,36.79
2018-09-20T17:12:02.560Z,37.13
2018-09-20T17:14:33.254Z,37.29
2018-09-20T17:17:04.059Z,38.25
2018-09-20T17:19:34.781Z,37.91
2018-09-20T17:22:05.449Z,38.46
2018-09-20T17:24:36.090Z,38.99
2018-09-20T17:27:06.916Z,39.32
2018-09-20T17:29:37.614Z,39.28
2018-09-20T17:32:08.283Z,39.63
2018-09-20T17:34:39.460Z,39.80
2018-09-20T17:37:11.815Z,39.99
2018-09-20T17:39:45.162Z,40.80
2018-09-20T17:42:16.842Z,41.50
2018-09-20T17:44:47.579Z,40.88
2018-09-20T17:47:18.353Z,41.23
2018-09-20T17:49:48.986Z,40.68
2018-09-20T17:52:20.362Z,41.54
2018-09-20T17:54:51.825Z,42.02
2018-09-20T17:57:23.411Z,42.75
2018-09-20T17:59:54.101Z,42.46
2018-09-20T18:02:24.733Z,43.16
2018-09-20T18:04:55.413Z,43.00
2018-09-20T18:07:26.067Z,42.67
2018-09-20T18:09:56.755Z,43.03
2018-09-20T18:12:27.511Z,43.27
2018-09-20T18:14:58.200Z,43.84
2018-09-20T18:17:28.899Z,44.41
2018-09-20T18:19:59.557Z,43.98
2018-09-20T18:22:30.326Z,44.25
2018-09-20T18:25:00.972Z,44.59
2018-09-20T18:27:31.655Z,44.53
2018-09-20T18:30:35.597Z,44.33
2018-09-20T18:33:06.323Z,42.69
2018-09-20T18:35:37.207Z,42.95
2018-09-20T18:38:08.082Z,42.44
2018-09-20T18:40:38.764Z,42.94
2018-09-20T18:43:09.399Z,41.50
2018-09-20T18:45:40.051Z,42.15
2018-09-20T18:48:10.711Z,40.49
2018-09-20T18:50:41.396Z,40.59
2018-09-20T18:53:12.025Z,40.77
2018-09-20T18:55:42.689Z,40.63
2018-09-20T18:58:13.348Z,40.71
2018-09-20T19:00:44.023Z,40.02
2018-09-20T19:03:14.810Z,40.13
2018-09-20T19:05:45.562Z,39.62
2018-09-20T19:08:16.223Z,39.82
2018-09-20T19:10:46.942Z,39.08
2018-09-20T19:13:17.622Z,39.23
2018-09-20T19:15:48.301Z,38.82
2018-09-20T19:18:19.041Z,39.42
2018-09-20T19:20:49.737Z,39.12
2018-09-20T19:23:20.458Z,39.18
2018-09-20T19:25:51.155Z,39.76
2018-09-20T19:28:21.882Z,38.64
2018-09-20T19:30:52.568Z,38.68
2018-09-20T19:33:23.214Z,38.71
2018-09-20T19:35:53.890Z,39.04
2018-09-20T19:38:24.552Z,38.81
2018-09-20T19:40:55.244Z,39.18
2018-09-20T19:43:25.864Z,39.12
2018-09-20T19:45:56.565Z,38.58
2018-09-20T19:48:33.865Z,38.90
2018-09-20T19:51:04.518Z,39.12
2018-09-20T19:53:35.236Z,38.76
2018-09-20T19:56:05.893Z,38.38
2018-09-20T19:58:36.552Z,38.74
2018-09-20T20:01:07.625Z,38.48
2018-09-20T20:03:38.258Z,38.69
2018-09-20T20:06:08.924Z,38.44
2018-09-20T20:08:39.665Z,38.68
2018-09-20T20:11:10.373Z,38.70
2018-09-20T20:13:41.033Z,38.40
2018-09-20T20:16:11.753Z,38.51
2018-09-20T20:18:42.815Z,39.07
2018-09-20T20:21:13.496Z,39.06
2018-09-20T20:23:44.174Z,38.78
2018-09-20T20:26:15.338Z,38.79
2018-09-20T20:28:46.109Z,38.61
2018-09-20T20:31:17.428Z,39.13
2018-09-20T20:33:48.264Z,39.21
2018-09-20T20:36:18.928Z,38.87
2018-09-20T20:38:49.579Z,39.17
2018-09-20T20:41:20.315Z,38.86
2018-09-20T20:43:51.024Z,39.16
2018-09-20T20:46:21.767Z,38.92
2018-09-20T20:48:52.482Z,39.10
2018-09-20T20:51:23.185Z,39.06
2018-09-20T20:53:53.824Z,39.65
2018-09-20T20:56:24.476Z,39.51
2018-09-20T20:58:55.245Z,40.24
2018-09-20T21:01:25.818Z,40.10
2018-09-20T21:03:56.487Z,40.21
2018-09-20T21:06:27.164Z,40.42
2018-09-20T21:08:57.955Z,40.06
2018-09-20T21:11:28.536Z,40.32
2018-09-20T21:13:59.747Z,40.50
2018-09-20T21:16:30.400Z,40.66
2018-09-20T21:19:01.065Z,40.63
2018-09-20T21:21:31.752Z,41.18
2018-09-20T21:24:02.345Z,41.10
2018-09-20T21:26:33.005Z,41.32
2018-09-20T21:29:03.669Z,41.19
2018-09-20T21:32:05.301Z,41.41
2018-09-20T21:34:35.999Z,41.62
2018-09-20T21:37:06.711Z,41.86
2018-09-20T21:39:37.406Z,41.56
2018-09-20T21:42:08.096Z,41.24
2018-09-20T21:44:38.763Z,41.76
2018-09-20T21:47:09.413Z,41.88
2018-09-20T21:49:40.021Z,41.82
2018-09-20T21:52:10.685Z,42.25
2018-09-20T21:54:41.304Z,42.14
2018-09-20T21:57:12.014Z,42.39
2018-09-20T21:59:42.640Z,42.00
2018-09-20T22:02:13.357Z,41.99
2018-09-20T22:04:44.069Z,42.46
2018-09-20T22:07:14.752Z,42.33
2018-09-20T22:09:45.377Z,42.42
2018-09-20T22:12:16.064Z,42.50
2018-09-20T22:14:46.707Z,42.03
2018-09-20T22:17:17.387Z,42.21
2018-09-20T22:19:48.052Z,41.93
2018-09-20T22:22:18.693Z,42.24
2018-09-20T22:24:49.344Z,42.38
2018-09-20T22:27:20.020Z,42.12
2018-09-20T22:29:50.823Z,42.14
2018-09-20T22:32:21.453Z,42.73
2018-09-20T22:34:52.184Z,42.61
2018-09-20T22:37:22.797Z,42.95
2018-09-20T22:39:53.412Z,43.05
2018-09-20T22:42:24.078Z,43.43
2018-09-20T22:44:54.691Z,42.87
2018-09-20T22:47:25.445Z,42.98
2018-09-20T22:49:56.127Z,43.35
2018-09-20T22:52:26.818Z,42.94
2018-09-20T22:54:57.518Z,43.27
2018-09-20T22:57:28.126Z,43.20
2018-09-20T22:59:58.795Z,43.70
2018-09-20T23:02:29.474Z,43.46
2018-09-20T23:05:00.127Z,43.70
2018-09-20T23:07:30.822Z,43.63
2018-09-20T23:10:01.404Z,43.82
2018-09-20T23:12:32.074Z,44.45
2018-09-20T23:15:02.709Z,44.59
2018-09-20T23:17:33.352Z,44.32
2018-09-20T23:20:04.026Z,44.57
2018-09-20T23:22:34.725Z,44.30
2018-09-20T23:25:05.470Z,44.97
2018-09-20T23:27:36.094Z,44.75
2018-09-20T23:30:06.908Z,44.93
2018-09-20T23:32:37.661Z,45.04
2018-09-20T23:35:08.399Z,44.93
2018-09-20T23:37:39.039Z,44.75
2018-09-20T23:40:09.632Z,44.99
2018-09-20T23:42:40.285Z,45.11
2018-09-20T23:45:10.928Z,45.49
2018-09-20T23:47:41.570Z,45.59
2018-09-20T23:50:12.269Z,45.40
2018-09-20T23:52:43.009Z,45.19
2018-09-20T23:55:13.652Z,45.84
2018-09-20T23:57:44.303Z,45.56
